Time;durP1;ratioP1;P1;durP2;ratioP2;P2;SDS_P1;SDS_P2;PMS_P1;PMS_P2;Temp;Humidity;BMP_temperature;BMP_pressure;BME280_temperature;BME280_humidity;BME280_pressure;Samples;Min_cycle;Max_cycle;Signal;HPM_P1;HPM_P2
2021/10/11 00:01:12;;;;;;;0.40;0.40;;;;;;;3.96;87.58;101833.81;5076559;28;20441;-68
2021/10/11 00:03:40;;;;;;;0.40;0.30;;;;;;;3.94;87.34;101843.94;5076429;28;20444;-69
2021/10/11 00:06:06;;;;;;;0.40;0.30;;;;;;;3.91;87.64;101831.81;5076325;28;20492;-68
2021/10/11 00:08:33;;;;;;;0.40;0.30;;;;;;;3.88;87.85;101842.16;5076012;28;20475;-69
2021/10/11 00:10:59;;;;;;;0.40;0.30;;;;;;;3.90;88.32;101845.44;5076312;28;20445;-69
2021/10/11 00:13:26;;;;;;;0.40;0.30;;;;;;;3.83;87.87;101842.03;5076260;28;20502;-68
2021/10/11 00:15:52;;;;;;;0.40;0.30;;;;;;;3.80;88.05;101838.72;5075760;28;21043;-68
2021/10/11 00:18:19;;;;;;;0.40;0.30;;;;;;;3.80;88.73;101835.22;5077562;28;20441;-69
2021/10/11 00:20:47;;;;;;;0.40;0.30;;;;;;;3.71;88.36;101834.72;5076082;28;20465;-69
2021/10/11 00:23:15;;;;;;;0.40;0.30;;;;;;;3.74;88.25;101833.47;5076064;28;20441;-69
2021/10/11 00:25:41;;;;;;;0.40;0.30;;;;;;;3.61;88.50;101826.41;5076028;28;20473;-69
2021/10/11 00:28:08;;;;;;;0.40;0.30;;;;;;;3.64;88.25;101828.63;5076024;28;20477;-69
2021/10/11 00:30:35;;;;;;;0.40;0.30;;;;;;;3.62;88.25;101824.53;5075923;28;20433;-69
2021/10/11 00:33:01;;;;;;;0.40;0.30;;;;;;;3.54;89.17;101821.13;5075409;28;20877;-69
2021/10/11 00:35:28;;;;;;;0.40;0.30;;;;;;;3.61;89.33;101821.03;5075780;28;20556;-69
2021/10/11 00:37:56;;;;;;;0.40;0.30;;;;;;;3.67;89.68;101824.69;5075892;28;20454;-69
2021/10/11 00:40:22;;;;;;;0.40;0.30;;;;;;;3.68;90.20;101826.34;5075683;28;20456;-69
2021/10/11 00:42:48;;;;;;;0.40;0.30;;;;;;;3.69;90.12;101826.09;5075712;28;20562;-69
2021/10/11 00:45:15;;;;;;;0.40;0.30;;;;;;;3.75;89.42;101825.19;5075571;28;20449;-69
2021/10/11 00:47:41;;;;;;;0.40;0.30;;;;;;;3.79;89.46;101817.53;5075706;28;20511;-69
2021/10/11 00:50:09;;;;;;;0.40;0.30;;;;;;;3.71;89.23;101813.28;5075320;28;20448;-69
2021/10/11 00:52:36;;;;;;;0.90;0.90;;;;;;;3.73;89.33;101800.50;5075280;28;20927;-69
2021/10/11 00:55:04;;;;;;;0.40;0.30;;;;;;;3.79;89.20;101799.59;5075597;28;20448;-69
2021/10/11 00:57:31;;;;;;;3.03;2.93;;;;;;;3.75;88.94;101790.34;5075064;28;20461;-69
2021/10/11 00:59:57;;;;;;;0.40;0.30;;;;;;;3.76;89.31;101791.16;5075489;28;20495;-69
2021/10/11 01:02:24;;;;;;;0.40;0.30;;;;;;;3.73;89.16;101784.41;5075460;28;20464;-69
2021/10/11 01:04:50;;;;;;;0.50;0.47;;;;;;;3.67;88.94;101773.78;5075020;28;20946;-69
2021/10/11 01:07:17;;;;;;;0.40;0.30;;;;;;;3.54;88.50;101780.94;5074785;28;20489;-69
2021/10/11 01:09:43;;;;;;;0.40;0.30;;;;;;;3.52;87.77;101783.03;5074251;28;20518;-69
2021/10/11 01:12:11;;;;;;;0.40;0.30;;;;;;;3.45;87.82;101776.09;5075115;28;20838;-69
2021/10/11 01:14:37;;;;;;;0.40;0.30;;;;;;;3.43;87.45;101770.16;5075148;28;20441;-69
2021/10/11 01:17:04;;;;;;;0.40;0.30;;;;;;;3.33;88.13;101757.31;5074847;28;20477;-69
2021/10/11 01:19:30;;;;;;;0.40;0.30;;;;;;;3.27;88.36;101763.53;5075115;28;20441;-69
2021/10/11 01:21:58;;;;;;;0.40;0.30;;;;;;;3.26;88.60;101756.53;5075018;28;20442;-69
2021/10/11 01:24:25;;;;;;;0.40;0.30;;;;;;;3.27;88.24;101742.13;5075030;28;20446;-69
2021/10/11 01:26:51;;;;;;;0.40;0.30;;;;;;;3.15;88.00;101734.03;5074766;28;20488;-69
2021/10/11 01:29:19;;;;;;;0.40;0.30;;;;;;;3.25;88.08;101731.63;5074763;28;20442;-69
2021/10/11 01:31:47;;;;;;;0.60;0.60;;;;;;;3.19;88.78;101724.50;5074708;28;20445;-69
2021/10/11 01:34:14;;;;;;;0.40;0.30;;;;;;;3.13;88.35;101725.38;5074739;28;20544;-69
2021/10/11 01:36:41;;;;;;;0.40;0.30;;;;;;;3.09;90.00;101734.91;5074730;28;20457;-69
2021/10/11 01:39:10;;;;;;;0.40;0.30;;;;;;;3.14;90.48;101735.03;5074396;28;20953;-69
2021/10/11 01:41:37;;;;;;;0.40;0.37;;;;;;;3.16;91.45;101724.94;5074671;28;20441;-69
2021/10/11 01:44:03;;;;;;;0.70;0.70;;;;;;;3.26;92.09;101729.78;5074560;28;20449;-69
2021/10/11 01:46:30;;;;;;;0.40;0.30;;;;;;;3.40;91.79;101704.47;5074315;28;20461;-69
2021/10/11 01:48:57;;;;;;;0.40;0.30;;;;;;;3.43;91.23;101701.34;5074565;28;20449;-69
2021/10/11 01:51:23;;;;;;;0.40;0.30;;;;;;;3.40;90.26;101695.63;5074173;28;20981;-69
2021/10/11 01:53:50;;;;;;;0.40;0.30;;;;;;;3.29;90.58;101698.03;5074382;28;20441;-69
2021/10/11 01:56:18;;;;;;;0.40;0.30;;;;;;;3.35;90.15;101685.59;5074143;28;20465;-68
2021/10/11 01:58:44;;;;;;;1.37;1.37;;;;;;;3.31;89.24;101683.59;5074373;28;20465;-68
2021/10/11 02:01:11;;;;;;;0.40;0.30;;;;;;;3.38;89.94;101690.50;5074215;28;20499;-68
2021/10/11 02:03:37;;;;;;;0.40;0.30;;;;;;;3.39;90.36;101680.59;5074169;28;20449;-69
2021/10/11 02:06:04;;;;;;;0.40;0.30;;;;;;;3.43;91.45;101700.53;5074046;28;20473;-68
2021/10/11 02:08:30;;;;;;;0.40;0.30;;;;;;;3.49;91.53;101694.25;5073995;28;20489;-68
2021/10/11 02:10:57;;;;;;;0.77;0.77;;;;;;;3.50;92.00;101687.88;5074122;28;20437;-69
2021/10/11 02:13:25;;;;;;;0.40;0.30;;;;;;;3.62;91.84;101693.28;5073925;28;20448;-71
2021/10/11 02:15:51;;;;;;;0.40;0.30;;;;;;;3.67;92.12;101686.19;5073698;28;21028;-71
2021/10/11 02:18:18;;;;;;;0.40;0.30;;;;;;;3.66;92.85;101687.22;5074139;28;20452;-71
2021/10/11 02:20:44;;;;;;;0.83;0.83;;;;;;;3.78;92.46;101685.41;5073878;28;20438;-71
2021/10/11 02:23:10;;;;;;;0.40;0.30;;;;;;;3.86;92.04;101683.47;5073864;28;20468;-72
2021/10/11 02:25:37;;;;;;;0.40;0.30;;;;;;;3.86;91.43;101675.44;5073673;28;20469;-71
2021/10/11 02:28:03;;;;;;;0.40;0.30;;;;;;;3.87;91.97;101664.47;5073796;28;20514;-71
2021/10/11 02:30:32;;;;;;;0.40;0.30;;;;;;;3.93;91.83;101671.56;5073717;28;20453;-72
2021/10/11 02:32:58;;;;;;;0.43;0.30;;;;;;;3.89;92.81;101674.94;5073687;28;20444;-71
2021/10/11 02:35:25;;;;;;;0.40;0.30;;;;;;;3.79;93.55;101670.97;5073568;28;20445;-71
2021/10/11 02:37:51;;;;;;;0.40;0.30;;;;;;;3.93;93.13;101671.56;5073275;28;20926;-71
2021/10/11 02:40:18;;;;;;;7.27;6.83;;;;;;;3.99;92.73;101665.31;5073458;28;20437;-71
2021/10/11 02:42:44;;;;;;;0.40;0.30;;;;;;;3.95;92.46;101668.69;5073493;28;20445;-70
2021/10/11 02:45:11;;;;;;;2.00;1.90;;;;;;;4.00;92.34;101655.41;5073454;28;20450;-71
2021/10/11 02:47:39;;;;;;;0.40;0.30;;;;;;;3.93;91.94;101666.22;5073357;28;20477;-71
2021/10/11 02:50:06;;;;;;;0.83;0.83;;;;;;;3.97;91.64;101656.66;5073377;28;20446;-71
2021/10/11 02:52:33;;;;;;;0.40;0.30;;;;;;;4.00;91.50;101664.25;5073433;28;20449;-71
2021/10/11 02:55:00;;;;;;;0.40;0.30;;;;;;;3.94;91.50;101661.66;5073399;28;20472;-71
2021/10/11 02:57:27;;;;;;;0.40;0.30;;;;;;;3.95;91.92;101656.09;5072902;28;20998;-71
2021/10/11 02:59:53;;;;;;;0.40;0.30;;;;;;;4.03;91.61;101653.09;5073028;28;20965;-71
2021/10/11 03:02:20;;;;;;;1.13;1.13;;;;;;;4.00;91.19;101644.69;5073257;28;20559;-72
2021/10/11 03:04:49;;;;;;;0.57;0.57;;;;;;;4.03;91.43;101649.59;5073257;28;20441;-71
2021/10/11 03:07:16;;;;;;;1.40;1.30;;;;;;;4.11;91.20;101643.06;5073019;28;20491;-71
2021/10/11 03:09:42;;;;;;;0.40;0.30;;;;;;;4.15;91.03;101641.53;5073231;28;20442;-72
2021/10/11 03:12:09;;;;;;;0.40;0.30;;;;;;;4.07;92.34;101640.00;5072908;28;20938;-71
2021/10/11 03:14:35;;;;;;;0.87;0.87;;;;;;;4.17;92.48;101632.22;5073091;28;20445;-71
2021/10/11 03:17:02;;;;;;;0.40;0.30;;;;;;;4.23;93.16;101628.59;5072684;28;20465;-71
2021/10/11 03:19:28;;;;;;;0.40;0.30;;;;;;;4.29;93.56;101633.06;5073159;28;20441;-71
2021/10/11 03:21:56;;;;;;;0.40;0.30;;;;;;;4.34;94.25;101626.16;5073140;28;20441;-71
2021/10/11 03:24:22;;;;;;;0.40;0.30;;;;;;;4.37;94.94;101628.38;5073063;28;20448;-71
2021/10/11 03:26:49;;;;;;;2.13;2.00;;;;;;;4.41;95.05;101630.34;5072929;28;20465;-70
2021/10/11 03:29:17;;;;;;;0.40;0.30;;;;;;;4.48;95.02;101627.56;5072948;28;20477;-70
2021/10/11 03:31:44;;;;;;;0.60;0.60;;;;;;;4.54;95.46;101624.75;5073060;28;20449;-70
2021/10/11 03:34:12;;;;;;;0.40;0.30;;;;;;;4.55;95.81;101625.56;5075628;28;20931;-70
2021/10/11 03:36:38;;;;;;;0.40;0.30;;;;;;;4.68;95.28;101619.94;5076954;28;20465;-71
2021/10/11 03:39:07;;;;;;;0.73;0.73;;;;;;;4.75;95.82;101622.50;5076924;28;20478;-70
2021/10/11 03:41:33;;;;;;;0.40;0.30;;;;;;;4.79;95.55;101624.50;5076975;28;20488;-70
2021/10/11 03:44:00;;;;;;;0.40;0.30;;;;;;;4.78;95.65;101622.88;5076884;28;20475;-70
2021/10/11 03:46:27;;;;;;;0.40;0.30;;;;;;;4.72;94.40;101621.09;5076681;28;20862;-70
2021/10/11 03:48:53;;;;;;;0.40;0.30;;;;;;;4.76;94.93;101621.47;5076675;28;20484;-70
2021/10/11 03:51:21;;;;;;;0.40;0.30;;;;;;;4.73;94.50;101617.38;5076399;28;20950;-70
2021/10/11 03:53:48;;;;;;;0.40;0.30;;;;;;;4.83;94.14;101624.03;5076687;28;20449;-70
2021/10/11 03:56:15;;;;;;;0.97;0.97;;;;;;;4.83;94.13;101614.09;5076235;28;20974;-70
2021/10/11 03:58:42;;;;;;;0.40;0.30;;;;;;;4.86;93.78;101618.97;5076584;28;20444;-70
2021/10/11 04:01:09;;;;;;;0.40;0.30;;;;;;;4.81;94.63;101618.88;5076479;28;20494;-71
2021/10/11 04:03:35;;;;;;;0.40;0.30;;;;;;;4.85;94.44;101619.22;5076463;28;20447;-71
2021/10/11 04:06:02;;;;;;;0.50;0.40;;;;;;;4.83;94.17;101611.41;5076349;28;20457;-71
2021/10/11 04:08:34;;;;;;;0.40;0.30;;;;;;;4.86;94.13;101615.47;5076256;28;20481;-70
2021/10/11 04:11:04;;;;;;;0.40;0.30;;;;;;;4.87;93.85;101614.41;5076490;28;20433;-71
2021/10/11 04:13:32;;;;;;;0.40;0.30;;;;;;;4.94;93.66;101618.59;5076304;28;20481;-71
2021/10/11 04:15:58;;;;;;;0.40;0.30;;;;;;;4.96;95.45;101615.72;5076364;28;20853;-71
2021/10/11 04:18:25;;;;;;;0.40;0.30;;;;;;;5.04;95.61;101612.63;5075533;28;20457;-71
2021/10/11 04:20:52;;;;;;;0.40;0.30;;;;;;;5.01;96.47;101615.81;5076118;28;20441;-71
2021/10/11 04:23:18;;;;;;;0.40;0.30;;;;;;;5.10;96.82;101613.56;5075811;28;20923;-71
2021/10/11 04:25:45;;;;;;;0.40;0.30;;;;;;;5.21;96.67;101607.31;5075985;28;20472;-71
2021/10/11 04:28:12;;;;;;;0.40;0.30;;;;;;;5.26;97.36;101613.59;5075696;28;21025;-72
2021/10/11 04:30:41;;;;;;;0.40;0.30;;;;;;;5.31;96.92;101616.41;5075956;28;20451;-69
2021/10/11 04:33:07;;;;;;;1.03;1.03;;;;;;;5.41;96.99;101617.63;5075982;28;20948;-69
2021/10/11 04:35:34;;;;;;;0.40;0.30;;;;;;;5.42;97.48;101611.19;5075821;28;20465;-69
2021/10/11 04:38:01;;;;;;;0.40;0.30;;;;;;;5.48;97.24;101613.72;5075901;28;20483;-69
2021/10/11 04:40:27;;;;;;;0.40;0.30;;;;;;;5.57;96.99;101608.78;5075817;28;20441;-69
2021/10/11 04:42:54;;;;;;;0.40;0.30;;;;;;;5.61;96.42;101611.78;5075748;28;20437;-69
2021/10/11 04:45:26;;;;;;;0.40;0.30;;;;;;;5.57;96.23;101611.47;5075616;28;20445;-68
2021/10/11 04:47:54;;;;;;;0.40;0.30;;;;;;;5.48;95.16;101611.03;5075911;28;20465;-71
2021/10/11 04:50:21;;;;;;;0.40;0.30;;;;;;;5.52;94.67;101609.50;5075621;28;20445;-70
2021/10/11 04:52:48;;;;;;;0.40;0.30;;;;;;;5.49;94.56;101599.25;5075629;28;20445;-71
2021/10/11 04:55:14;;;;;;;0.40;0.30;;;;;;;5.50;94.08;101594.69;5075503;28;20445;-68
2021/10/11 04:57:44;;;;;;;0.40;0.30;;;;;;;5.36;94.08;101586.13;5075444;28;20433;-68
2021/10/11 05:00:13;;;;;;;0.40;0.30;;;;;;;5.36;94.07;101582.59;5075474;28;20445;-68
2021/10/11 05:02:39;;;;;;;0.40;0.30;;;;;;;5.38;94.37;101588.56;5075361;28;20919;-68
2021/10/11 05:05:08;;;;;;;1.90;1.00;;;;;;;5.47;93.87;101577.16;5075427;28;20445;-68
2021/10/11 05:07:35;;;;;;;0.40;0.30;;;;;;;5.40;93.60;101589.13;5075144;28;20480;-69
2021/10/11 05:10:01;;;;;;;0.40;0.30;;;;;;;5.36;94.34;101580.75;5075284;28;20437;-71
2021/10/11 05:12:28;;;;;;;0.40;0.30;;;;;;;5.44;94.00;101584.88;5075454;28;20437;-67
2021/10/11 05:14:54;;;;;;;0.40;0.30;;;;;;;5.48;95.88;101586.03;5075083;28;20437;-68
2021/10/11 05:17:21;;;;;;;0.40;0.30;;;;;;;5.56;96.29;101591.03;5074964;28;20473;-68
2021/10/11 05:19:47;;;;;;;0.40;0.30;;;;;;;5.65;96.67;101589.56;5075083;28;20446;-68
2021/10/11 05:22:15;;;;;;;7.77;3.17;;;;;;;5.72;96.98;101586.72;5075191;28;20445;-68
2021/10/11 05:24:42;;;;;;;0.40;0.30;;;;;;;5.83;96.79;101581.25;5074936;28;20441;-68
2021/10/11 05:27:08;;;;;;;0.50;0.50;;;;;;;5.90;97.16;101585.69;5074866;28;20466;-68
2021/10/11 05:29:37;;;;;;;0.40;0.30;;;;;;;6.00;97.30;101580.47;5074857;28;20481;-68
2021/10/11 05:32:05;;;;;;;0.40;0.30;;;;;;;6.04;97.49;101585.13;5074833;28;20540;-68
2021/10/11 05:34:32;;;;;;;0.40;0.40;;;;;;;6.03;98.26;101590.75;5074776;28;20473;-68
2021/10/11 05:36:59;;;;;;;2.10;2.00;;;;;;;6.13;97.71;101595.47;5074727;28;20461;-68
2021/10/11 05:39:27;;;;;;;0.40;0.30;;;;;;;6.18;97.72;101579.41;5074522;28;20949;-68
2021/10/11 05:41:53;;;;;;;0.40;0.30;;;;;;;6.21;97.60;101582.41;5074650;28;20490;-69
2021/10/11 05:44:20;;;;;;;0.40;0.30;;;;;;;6.18;96.74;101596.34;5074222;28;20946;-69
2021/10/11 05:46:47;;;;;;;3.47;3.20;;;;;;;6.22;96.37;101589.41;5074463;28;20698;-68
2021/10/11 05:49:14;;;;;;;0.40;0.30;;;;;;;6.26;95.49;101593.25;5074464;28;20567;-68
2021/10/11 05:51:40;;;;;;;0.40;0.37;;;;;;;6.35;94.06;101593.63;5074414;28;20849;-68
2021/10/11 05:54:07;;;;;;;0.40;0.30;;;;;;;6.38;93.38;101593.16;5074401;28;20437;-68
2021/10/11 05:56:35;;;;;;;0.40;0.30;;;;;;;6.29;92.75;101595.44;5073729;28;20461;-69
2021/10/11 05:59:02;;;;;;;0.40;0.30;;;;;;;6.32;93.03;101586.88;5073988;28;20449;-68
2021/10/11 06:01:28;;;;;;;0.40;0.30;;;;;;;6.37;93.11;101574.53;5074285;28;20448;-68
2021/10/11 06:03:55;;;;;;;0.40;0.33;;;;;;;6.45;93.19;101584.88;5074221;28;20448;-68
2021/10/11 06:06:21;;;;;;;4.33;3.17;;;;;;;6.52;93.26;101582.84;5074057;28;20468;-68
2021/10/11 06:08:47;;;;;;;0.40;0.20;;;;;;;6.56;92.33;101581.28;5073656;28;20477;-68
2021/10/11 06:11:15;;;;;;;0.47;0.40;;;;;;;6.66;92.81;101573.31;5074056;28;20440;-68
2021/10/11 06:13:43;;;;;;;0.40;0.30;;;;;;;6.72;93.21;101574.19;5073918;28;20472;-69
2021/10/11 06:16:10;;;;;;;0.40;0.30;;;;;;;6.72;94.34;101590.34;5073584;28;20990;-68
2021/10/11 06:18:36;;;;;;;7.10;4.87;;;;;;;6.82;94.00;101583.22;5074571;28;20453;-69
2021/10/11 06:21:03;;;;;;;1.13;1.13;;;;;;;6.89;94.49;101595.69;5073539;28;20819;-69
2021/10/11 06:23:29;;;;;;;1.03;0.93;;;;;;;6.98;94.70;101588.78;5073446;28;20939;-69
2021/10/11 06:25:56;;;;;;;2.63;2.53;;;;;;;7.03;95.06;101591.53;5073391;28;20468;-68
2021/10/11 06:28:22;;;;;;;0.40;0.30;;;;;;;7.12;95.29;101590.00;5073639;28;20519;-69
2021/10/11 06:30:50;;;;;;;1.33;1.23;;;;;;;7.22;95.15;101594.72;5073606;28;20448;-68
2021/10/11 06:33:21;;;;;;;0.40;0.30;;;;;;;7.27;95.42;101590.19;5073661;28;20453;-68
2021/10/11 06:35:47;;;;;;;0.40;0.30;;;;;;;7.36;95.10;101595.94;5073552;28;20469;-69
2021/10/11 06:38:13;;;;;;;0.40;0.30;;;;;;;7.44;95.09;101602.75;5073554;28;20448;-68
2021/10/11 06:40:40;;;;;;;0.40;0.27;;;;;;;7.52;95.07;101600.38;5073518;28;20446;-69
2021/10/11 06:43:06;;;;;;;0.40;0.23;;;;;;;7.53;95.21;101606.63;5073418;28;20441;-69
2021/10/11 06:45:33;;;;;;;0.40;0.30;;;;;;;7.60;94.44;101612.59;5073122;28;20460;-69
2021/10/11 06:48:01;;;;;;;0.40;0.30;;;;;;;7.65;93.60;101612.63;5073239;28;20453;-68
2021/10/11 06:50:27;;;;;;;0.63;0.63;;;;;;;7.69;92.60;101610.25;5073317;28;20441;-69
2021/10/11 06:52:54;;;;;;;0.40;0.30;;;;;;;7.70;91.52;101615.41;5073381;28;20445;-68
2021/10/11 06:55:20;;;;;;;0.40;0.30;;;;;;;7.70;91.18;101623.50;5073268;28;20441;-69
2021/10/11 06:57:46;;;;;;;0.40;0.30;;;;;;;7.73;91.55;101624.84;5073307;28;20445;-69
2021/10/11 07:00:14;;;;;;;0.40;0.30;;;;;;;7.77;91.62;101632.16;5072988;28;20935;-68
2021/10/11 07:02:40;;;;;;;0.40;0.30;;;;;;;7.82;91.35;101626.81;5073224;28;20445;-68
2021/10/11 07:05:10;;;;;;;1.53;1.43;;;;;;;7.91;91.11;101627.16;5073394;28;20521;-68
2021/10/11 07:07:37;;;;;;;0.40;0.30;;;;;;;7.96;91.25;101626.38;5072451;28;20466;-69
2021/10/11 07:10:04;;;;;;;0.57;0.50;;;;;;;8.06;90.55;101631.88;5073227;28;20492;-69
2021/10/11 07:12:31;;;;;;;2.10;2.00;;;;;;;8.13;90.30;101632.47;5073172;28;20437;-69
2021/10/11 07:14:57;;;;;;;0.40;0.30;;;;;;;8.21;90.78;101633.88;5073161;28;20445;-68
2021/10/11 07:17:24;;;;;;;0.50;0.43;;;;;;;8.25;91.73;101635.78;5072691;28;20473;-69
2021/10/11 07:19:50;;;;;;;0.40;0.30;;;;;;;8.32;91.82;101635.56;5072807;28;20936;-69
2021/10/11 07:22:19;;;;;;;0.40;0.30;;;;;;;8.34;92.26;101634.22;5073080;28;20563;-69
2021/10/11 07:24:46;;;;;;;0.40;0.30;;;;;;;8.42;92.18;101632.97;5073041;28;20437;-69
2021/10/11 07:27:14;;;;;;;0.40;0.30;;;;;;;8.47;92.50;101633.00;5072962;28;20461;-68
2021/10/11 07:29:40;;;;;;;0.40;0.30;;;;;;;8.45;92.89;101631.63;5072924;28;20480;-69
2021/10/11 07:32:08;;;;;;;0.50;0.50;;;;;;;8.51;92.98;101630.59;5073009;28;20449;-68
2021/10/11 07:34:35;;;;;;;0.40;0.30;;;;;;;8.56;92.78;101628.72;5073021;28;20448;-69
2021/10/11 07:37:02;;;;;;;0.40;0.20;;;;;;;8.66;92.57;101636.06;5072867;28;20468;-68
2021/10/11 07:39:30;;;;;;;2.60;2.40;;;;;;;8.74;92.10;101642.88;5072918;28;20437;-69
2021/10/11 07:41:58;;;;;;;0.67;0.67;;;;;;;8.77;92.35;101637.75;5072899;28;20445;-69
2021/10/11 07:44:24;;;;;;;0.40;0.30;;;;;;;8.83;91.83;101641.28;5072801;28;20445;-70
2021/10/11 07:46:53;;;;;;;0.40;0.30;;;;;;;8.85;91.89;101644.53;5072773;28;20457;-68
2021/10/11 07:49:20;;;;;;;0.40;0.30;;;;;;;8.89;92.34;101650.22;5072767;28;20502;-69
2021/10/11 07:51:46;;;;;;;0.60;0.60;;;;;;;8.92;93.21;101641.59;5072766;28;20446;-69
2021/10/11 07:54:16;;;;;;;0.40;0.30;;;;;;;8.91;93.23;101638.09;5072539;28;20880;-68
2021/10/11 07:56:43;;;;;;;4.70;4.30;;;;;;;8.87;93.36;101637.00;5072675;28;20473;-69
2021/10/11 07:59:10;;;;;;;0.40;0.27;;;;;;;8.84;93.49;101632.91;5072807;28;20438;-68
2021/10/11 08:01:37;;;;;;;0.40;0.30;;;;;;;8.81;93.76;101638.88;5072810;28;20858;-69
2021/10/11 08:04:04;;;;;;;2.60;1.70;;;;;;;8.83;94.44;101641.28;5072728;28;20437;-68
2021/10/11 08:06:30;;;;;;;0.50;0.50;;;;;;;8.82;95.96;101632.38;5072572;28;20989;-69
2021/10/11 08:08:57;;;;;;;0.40;0.20;;;;;;;8.81;96.28;101636.16;5070464;28;21009;-68
2021/10/11 08:11:23;;;;;;;0.40;0.30;;;;;;;8.82;96.61;101626.97;5052733;28;20461;-69
2021/10/11 08:13:51;;;;;;;0.50;0.40;;;;;;;8.83;97.45;101641.28;5052544;28;20540;-67
2021/10/11 08:16:18;;;;;;;0.40;0.20;;;;;;;8.80;98.17;101644.50;5052220;28;20865;-68
2021/10/11 08:18:44;;;;;;;0.40;0.30;;;;;;;8.82;98.63;101640.47;5053046;28;20465;-68
2021/10/11 08:21:10;;;;;;;0.40;0.30;;;;;;;8.86;98.83;101643.47;5056170;28;20450;-68
2021/10/11 08:23:41;;;;;;;0.40;0.30;;;;;;;8.93;98.85;101656.72;5056409;28;20442;-68
2021/10/11 08:26:07;;;;;;;0.60;0.60;;;;;;;8.91;98.94;101659.72;5056045;28;20466;-68
2021/10/11 08:28:34;;;;;;;0.40;0.30;;;;;;;9.02;99.15;101658.66;5055930;28;20434;-68
2021/10/11 08:31:02;;;;;;;0.40;0.30;;;;;;;9.07;99.42;101663.28;5055660;28;20935;-68
2021/10/11 08:33:28;;;;;;;2.20;2.10;;;;;;;9.16;99.76;101658.97;5055892;28;20533;-68
2021/10/11 08:35:55;;;;;;;3.17;2.87;;;;;;;9.20;99.72;101662.78;5055848;28;20457;-68
2021/10/11 08:38:21;;;;;;;8.93;8.03;;;;;;;9.37;99.54;101659.88;5055846;28;20496;-68
2021/10/11 08:40:49;;;;;;;0.40;0.30;;;;;;;9.50;99.62;101661.25;5055805;28;20439;-68
2021/10/11 08:43:16;;;;;;;0.40;0.23;;;;;;;9.58;99.02;101658.03;5055754;28;20499;-67
2021/10/11 08:45:43;;;;;;;0.40;0.30;;;;;;;9.49;98.77;101662.34;5055643;28;20469;-68
2021/10/11 08:48:11;;;;;;;0.50;0.40;;;;;;;9.52;98.87;101676.16;5055672;28;20446;-67
2021/10/11 08:50:37;;;;;;;0.40;0.30;;;;;;;9.51;99.22;101665.59;5055593;28;20485;-68
2021/10/11 08:53:04;;;;;;;0.40;0.30;;;;;;;9.57;99.11;101664.53;5055608;28;20920;-68
2021/10/11 08:55:31;;;;;;;4.30;1.40;;;;;;;9.59;98.94;101665.88;5055477;28;20822;-69
2021/10/11 08:58:00;;;;;;;0.40;0.20;;;;;;;9.75;99.44;101664.00;5055529;28;20813;-68
2021/10/11 09:00:31;;;;;;;0.40;0.30;;;;;;;9.88;99.92;101648.34;5055280;28;20466;-68
2021/10/11 09:02:59;;;;;;;0.50;0.30;;;;;;;10.02;99.46;101652.13;5055513;28;20791;-68
2021/10/11 09:05:32;;;;;;;0.40;0.37;;;;;;;10.07;98.93;101649.41;5055230;28;20450;-68
2021/10/11 09:08:01;;;;;;;0.50;0.40;;;;;;;10.20;99.45;101656.19;5055340;28;20476;-69
2021/10/11 09:10:28;;;;;;;0.40;0.30;;;;;;;10.37;99.46;101653.22;5055190;28;20486;-68
2021/10/11 09:12:55;;;;;;;0.40;0.30;;;;;;;10.61;98.68;101656.94;5055256;28;20439;-67
2021/10/11 09:15:25;;;;;;;1.37;1.27;;;;;;;10.75;96.93;101666.13;5055007;28;20897;-68
2021/10/11 09:17:55;;;;;;;0.40;0.30;;;;;;;10.57;97.17;101669.41;5055173;28;20430;-68
2021/10/11 09:20:24;;;;;;;0.50;0.50;;;;;;;10.66;97.07;101664.25;5055041;28;20434;-70
2021/10/11 09:22:53;;;;;;;0.77;0.77;;;;;;;10.68;97.46;101668.31;5055089;28;20449;-71
2021/10/11 09:25:22;;;;;;;0.40;0.30;;;;;;;10.69;97.41;101667.22;5054746;28;20466;-69
2021/10/11 09:27:52;;;;;;;0.40;0.30;;;;;;;10.82;97.20;101661.22;5054641;28;20980;-69
2021/10/11 09:30:21;;;;;;;0.40;0.20;;;;;;;10.80;97.05;101666.13;5054095;28;20481;-69
2021/10/11 09:32:48;;;;;;;0.50;0.30;;;;;;;10.93;97.14;101672.84;5054890;28;20442;-69
2021/10/11 09:35:17;;;;;;;20.87;2.20;;;;;;;10.98;97.02;101661.16;5054942;28;20443;-69
2021/10/11 09:37:50;;;;;;;0.40;0.30;;;;;;;11.08;96.71;101659.25;5054756;28;20457;-69
2021/10/11 09:40:20;;;;;;;0.40;0.30;;;;;;;11.19;97.07;101659.19;5054480;28;20526;-69
2021/10/11 09:42:47;;;;;;;0.40;0.30;;;;;;;11.41;96.27;101658.81;5054683;28;20446;-68
2021/10/11 09:45:14;;;;;;;2.97;1.50;;;;;;;11.44;95.47;101650.13;5054602;28;20499;-69
2021/10/11 09:47:44;;;;;;;0.40;0.30;;;;;;;11.45;95.10;101652.53;5054542;28;20442;-70
2021/10/11 09:50:13;;;;;;;0.40;0.30;;;;;;;11.42;95.85;101658.53;5054221;28;21037;-70
2021/10/11 09:52:41;;;;;;;0.50;0.40;;;;;;;11.46;95.71;101658.78;5054479;28;20442;-69
2021/10/11 09:55:09;;;;;;;0.40;0.30;;;;;;;11.54;95.59;101650.03;5054481;28;20816;-68
2021/10/11 09:57:37;;;;;;;0.40;0.30;;;;;;;11.69;95.71;101646.44;5054167;28;20464;-68
2021/10/11 10:00:08;;;;;;;2.97;2.83;;;;;;;11.78;94.67;101656.41;5054201;28;20476;-69
2021/10/11 10:02:35;;;;;;;0.40;0.30;;;;;;;11.89;94.33;101656.34;5054501;28;20442;-68
2021/10/11 10:05:03;;;;;;;0.40;0.30;;;;;;;11.93;93.91;101652.78;5054084;28;20825;-69
2021/10/11 10:07:34;;;;;;;0.40;0.30;;;;;;;12.01;93.79;101649.47;5054079;28;20462;-69
2021/10/11 10:10:05;;;;;;;0.40;0.30;;;;;;;12.06;93.73;101654.03;5053931;28;20488;-68
2021/10/11 10:12:31;;;;;;;0.40;0.30;;;;;;;12.15;93.25;101649.63;5054013;28;20837;-68
2021/10/11 10:15:02;;;;;;;2.20;2.10;;;;;;;12.28;93.12;101654.38;5053981;28;20449;-68
2021/10/11 10:17:32;;;;;;;0.40;0.23;;;;;;;12.39;92.59;101655.09;5072841;28;20483;-69
2021/10/11 10:20:10;;;;;;;0.40;0.30;;;;;;;12.52;92.21;101653.59;5073745;28;20454;-68
2021/10/11 10:22:48;;;;;;;0.40;0.30;;;;;;;12.65;91.26;101646.69;5073763;28;20536;-68
2021/10/11 10:25:15;;;;;;;0.40;0.30;;;;;;;12.76;91.73;101646.28;5073853;28;20429;-69
2021/10/11 10:27:41;;;;;;;0.40;0.30;;;;;;;12.88;91.37;101648.59;5073416;28;20951;-68
2021/10/11 10:30:21;;;;;;;1.33;1.00;;;;;;;12.99;90.76;101641.13;5073345;28;21024;-69
2021/10/11 10:32:59;;;;;;;0.40;0.30;;;;;;;13.18;89.11;101652.84;5073428;28;20907;-67
2021/10/11 10:35:28;;;;;;;0.40;0.30;;;;;;;13.28;87.88;101636.44;5073741;28;20822;-69
2021/10/11 10:37:55;;;;;;;0.40;0.30;;;;;;;13.41;87.57;101637.59;5073659;28;20438;-68
2021/10/11 10:40:27;;;;;;;0.40;0.30;;;;;;;13.56;87.17;101631.94;5073774;28;20441;-69
2021/10/11 10:43:03;;;;;;;0.40;0.20;;;;;;;13.69;86.35;101641.28;5073408;28;20437;-68
2021/10/11 10:45:34;;;;;;;0.40;0.30;;;;;;;13.83;86.43;101627.72;5073429;28;20433;-69
2021/10/11 10:48:01;;;;;;;0.40;0.30;;;;;;;14.03;86.16;101629.28;5073568;28;20422;-68
2021/10/11 10:50:28;;;;;;;0.40;0.30;;;;;;;14.16;85.01;101628.50;5073351;28;20507;-69
2021/10/11 10:52:57;;;;;;;0.40;0.30;;;;;;;14.23;83.91;101623.47;5073083;28;20939;-69
2021/10/11 10:55:24;;;;;;;0.67;0.67;;;;;;;14.14;84.06;101626.09;5073003;28;20930;-68
2021/10/11 10:57:54;;;;;;;0.40;0.30;;;;;;;14.34;84.22;101614.03;5073324;28;20445;-69
2021/10/11 11:00:23;;;;;;;0.50;0.43;;;;;;;14.67;83.64;101615.88;5073457;28;20441;-69
2021/10/11 11:02:52;;;;;;;0.40;0.30;;;;;;;14.75;82.55;101618.72;5073359;28;20453;-68
2021/10/11 11:05:20;;;;;;;0.40;0.30;;;;;;;14.72;81.93;101623.97;5073189;28;20449;-69
2021/10/11 11:07:49;;;;;;;0.40;0.30;;;;;;;14.83;82.08;101611.72;5073117;28;20446;-70
2021/10/11 11:10:17;;;;;;;0.40;0.30;;;;;;;14.92;82.22;101614.53;5073212;28;20900;-69
2021/10/11 11:12:45;;;;;;;0.40;0.30;;;;;;;14.97;80.98;101617.19;5073337;28;20448;-70
2021/10/11 11:15:23;;;;;;;0.40;0.30;;;;;;;15.01;81.32;101615.47;5073264;28;20484;-69
2021/10/11 11:17:51;;;;;;;0.40;0.30;;;;;;;15.10;80.29;101605.44;5073206;28;20449;-69
2021/10/11 11:20:23;;;;;;;0.40;0.30;;;;;;;16.00;78.19;101617.25;5073128;28;20448;-69
2021/10/11 11:22:50;;;;;;;0.40;0.30;;;;;;;16.72;73.53;101612.59;5072930;28;20430;-68
2021/10/11 11:25:17;;;;;;;0.40;0.30;;;;;;;17.98;71.02;101620.00;5073105;28;20457;-70
2021/10/11 11:27:44;;;;;;;0.40;0.30;;;;;;;18.68;63.83;101618.59;5072918;28;20473;-70
2021/10/11 11:30:13;;;;;;;0.40;0.27;;;;;;;19.32;62.69;101615.66;5072588;28;21017;-70
2021/10/11 11:32:47;;;;;;;0.40;0.20;;;;;;;19.47;59.89;101617.00;5072970;28;20452;-69